Pagina principale
METAR-TAF:

METAR-TAF

Aeroporti :

Aeroporto di Magadino

Locarno, Svizzera

latitudine: 46-09-55N, longitudine: 8-52-40E, altezza: 198 m

Osservazione

Il bollettino è stato emesso 24 minuti fa, alle 02:20 UTC
Vento 2 kt da est
Temperature 10°C
Umidità 100%
Pressione 1019 hPa
Visibilità: 4300 m
foschia

METAR: LSZL 190220Z AUTO 08002KT 4300NDV BR NCD 10/10 Q1019 RMK

Ora: 04:44 (02:44 UTC)

Previsione

Il bollettino è stato emesso 9 ore e 19 minuti fa, alle 17:25 UTC
Previsione valida dal 18 alle 18 UTC al 19 alle 03 UTC
Vento 3 kt da direzioni variabili
Visibilità 10 km o più
Poco nuvoloso ad un'altezza di 6000 ft
Nubi sparse ad un'altezza di 20000 ft
Evoluzione graduale
dal 18 alle 20 UTC al 18 alle 24 UTC
Visibilità: 4000 m
foschia
Probabilità 40%
dal 19 alle 00 UTC al 19 alle 03 UTC
Visibilità: 2500 m
banchi di nebbia

TAF: LSZL 181725Z 1818/1903 VRB03KT 9999 FEW060 SCT200 BECMG 1820/1824 4000 BR PROB40 1900/1903 2500 BCFG

Osservazioni e previsioni meteorologiche di più di 4000 aeroporti (messaggi METAR e TAF).

Le stazioni disponibili sono rappresentate dai dischi gialli e rossi sulla carta.

Puntare il mouse per vedere il nome della stazione.

Clicca sopra per visualizzare le osservazioni e previsioni meteorologiche.

Per cambiare la mappa : fare clic sui pulsanti verdi con una croce nera per ingrandire, il pulsante verde con un trattino per diminuire, o sulla freccia verde per le mappe adiacenti.


METAR-TAF: